sensor_id;sensor_type;location;lat;lon;timestamp;P1;durP1;ratioP1;P2;durP2;ratioP2
809;SDS011;387;48.772;9.186;2023-05-13T00:00:03;5.87;;;3.93;;
809;SDS011;387;48.772;9.186;2023-05-13T00:02:30;6.00;;;4.13;;
809;SDS011;387;48.772;9.186;2023-05-13T00:04:55;6.23;;;4.33;;
809;SDS011;387;48.772;9.186;2023-05-13T00:07:21;5.53;;;4.20;;
809;SDS011;387;48.772;9.186;2023-05-13T00:09:47;7.63;;;4.63;;
809;SDS011;387;48.772;9.186;2023-05-13T00:12:12;5.90;;;4.40;;
809;SDS011;387;48.772;9.186;2023-05-13T00:14:38;4.50;;;4.17;;
809;SDS011;387;48.772;9.186;2023-05-13T00:17:03;8.67;;;5.20;;
809;SDS011;387;48.772;9.186;2023-05-13T00:19:29;5.80;;;4.10;;
809;SDS011;387;48.772;9.186;2023-05-13T00:21:55;5.57;;;4.30;;
809;SDS011;387;48.772;9.186;2023-05-13T00:24:21;8.30;;;4.50;;
809;SDS011;387;48.772;9.186;2023-05-13T00:26:47;6.73;;;4.10;;
809;SDS011;387;48.772;9.186;2023-05-13T00:29:12;5.97;;;4.67;;
809;SDS011;387;48.772;9.186;2023-05-13T00:31:38;7.33;;;4.57;;
809;SDS011;387;48.772;9.186;2023-05-13T00:34:03;7.30;;;4.97;;
809;SDS011;387;48.772;9.186;2023-05-13T00:36:29;7.40;;;5.00;;
809;SDS011;387;48.772;9.186;2023-05-13T00:38:55;11.73;;;5.80;;
809;SDS011;387;48.772;9.186;2023-05-13T00:41:21;8.97;;;5.80;;
809;SDS011;387;48.772;9.186;2023-05-13T00:43:46;7.87;;;4.90;;
809;SDS011;387;48.772;9.186;2023-05-13T00:46:12;7.47;;;4.63;;
809;SDS011;387;48.772;9.186;2023-05-13T00:48:39;6.80;;;4.77;;
809;SDS011;387;48.772;9.186;2023-05-13T00:51:05;8.30;;;5.10;;
809;SDS011;387;48.772;9.186;2023-05-13T00:53:32;9.07;;;4.93;;
809;SDS011;387;48.772;9.186;2023-05-13T00:55:58;9.50;;;5.30;;
809;SDS011;387;48.772;9.186;2023-05-13T00:58:23;5.33;;;4.43;;
809;SDS011;387;48.772;9.186;2023-05-13T01:04:07;7.57;;;5.33;;
809;SDS011;387;48.772;9.186;2023-05-13T01:12:31;9.40;;;5.20;;
809;SDS011;387;48.772;9.186;2023-05-13T01:15:16;6.30;;;4.20;;
809;SDS011;387;48.772;9.186;2023-05-13T01:17:49;5.87;;;4.80;;
809;SDS011;387;48.772;9.186;2023-05-13T01:20:34;6.97;;;5.10;;
809;SDS011;387;48.772;9.186;2023-05-13T01:23:04;6.80;;;4.60;;
809;SDS011;387;48.772;9.186;2023-05-13T01:25:30;6.37;;;4.80;;
809;SDS011;387;48.772;9.186;2023-05-13T01:27:56;7.63;;;5.33;;
809;SDS011;387;48.772;9.186;2023-05-13T01:30:22;9.10;;;5.30;;
809;SDS011;387;48.772;9.186;2023-05-13T01:32:48;16.87;;;5.40;;
809;SDS011;387;48.772;9.186;2023-05-13T01:35:15;7.13;;;5.07;;
809;SDS011;387;48.772;9.186;2023-05-13T01:37:42;6.97;;;4.97;;
809;SDS011;387;48.772;9.186;2023-05-13T01:40:08;11.20;;;5.00;;
809;SDS011;387;48.772;9.186;2023-05-13T01:42:34;8.43;;;5.70;;
809;SDS011;387;48.772;9.186;2023-05-13T01:45:01;6.50;;;5.07;;
809;SDS011;387;48.772;9.186;2023-05-13T01:47:27;10.20;;;5.83;;
809;SDS011;387;48.772;9.186;2023-05-13T01:49:53;7.87;;;5.00;;
809;SDS011;387;48.772;9.186;2023-05-13T01:52:18;7.10;;;4.63;;
809;SDS011;387;48.772;9.186;2023-05-13T01:54:44;9.13;;;5.30;;
809;SDS011;387;48.772;9.186;2023-05-13T01:57:10;7.83;;;5.60;;
809;SDS011;387;48.772;9.186;2023-05-13T01:59:36;5.73;;;4.50;;
809;SDS011;387;48.772;9.186;2023-05-13T02:02:01;7.37;;;5.10;;
809;SDS011;387;48.772;9.186;2023-05-13T02:04:28;8.50;;;5.60;;
809;SDS011;387;48.772;9.186;2023-05-13T02:06:53;10.83;;;5.60;;
809;SDS011;387;48.772;9.186;2023-05-13T02:09:19;7.43;;;5.30;;
809;SDS011;387;48.772;9.186;2023-05-13T02:11:45;8.13;;;4.97;;
809;SDS011;387;48.772;9.186;2023-05-13T02:14:11;9.70;;;5.70;;
809;SDS011;387;48.772;9.186;2023-05-13T02:16:36;6.83;;;4.47;;
809;SDS011;387;48.772;9.186;2023-05-13T02:19:02;6.73;;;4.93;;
809;SDS011;387;48.772;9.186;2023-05-13T02:21:28;6.77;;;4.40;;
809;SDS011;387;48.772;9.186;2023-05-13T02:23:53;6.10;;;4.27;;
809;SDS011;387;48.772;9.186;2023-05-13T02:26:19;7.50;;;4.90;;
809;SDS011;387;48.772;9.186;2023-05-13T02:28:45;6.27;;;4.77;;
809;SDS011;387;48.772;9.186;2023-05-13T02:31:10;7.33;;;4.70;;
809;SDS011;387;48.772;9.186;2023-05-13T02:33:36;9.13;;;4.93;;
809;SDS011;387;48.772;9.186;2023-05-13T02:36:01;7.10;;;5.30;;
809;SDS011;387;48.772;9.186;2023-05-13T02:38:27;6.00;;;4.70;;
809;SDS011;387;48.772;9.186;2023-05-13T02:40:53;8.70;;;5.20;;
809;SDS011;387;48.772;9.186;2023-05-13T02:43:18;8.70;;;5.60;;
809;SDS011;387;48.772;9.186;2023-05-13T02:45:44;7.03;;;4.93;;
809;SDS011;387;48.772;9.186;2023-05-13T02:48:10;7.37;;;5.27;;
809;SDS011;387;48.772;9.186;2023-05-13T02:50:36;9.73;;;5.47;;
809;SDS011;387;48.772;9.186;2023-05-13T02:53:02;10.70;;;5.00;;
809;SDS011;387;48.772;9.186;2023-05-13T02:55:27;7.77;;;4.80;;
809;SDS011;387;48.772;9.186;2023-05-13T02:57:53;6.70;;;4.37;;
809;SDS011;387;48.772;9.186;2023-05-13T03:00:20;6.60;;;4.23;;
809;SDS011;387;48.772;9.186;2023-05-13T03:02:46;6.17;;;4.33;;
809;SDS011;387;48.772;9.186;2023-05-13T03:05:11;5.90;;;4.23;;
809;SDS011;387;48.772;9.186;2023-05-13T03:07:37;8.40;;;4.13;;
809;SDS011;387;48.772;9.186;2023-05-13T03:10:03;8.40;;;4.90;;
809;SDS011;387;48.772;9.186;2023-05-13T03:12:29;9.50;;;4.50;;
809;SDS011;387;48.772;9.186;2023-05-13T03:14:55;6.90;;;4.80;;
809;SDS011;387;48.772;9.186;2023-05-13T03:17:21;8.93;;;4.67;;
809;SDS011;387;48.772;9.186;2023-05-13T03:19:46;8.53;;;4.70;;
809;SDS011;387;48.772;9.186;2023-05-13T03:22:12;7.73;;;4.47;;
809;SDS011;387;48.772;9.186;2023-05-13T03:24:37;6.40;;;4.53;;
809;SDS011;387;48.772;9.186;2023-05-13T03:27:03;5.27;;;4.40;;
809;SDS011;387;48.772;9.186;2023-05-13T03:29:29;6.10;;;4.37;;
809;SDS011;387;48.772;9.186;2023-05-13T03:31:54;6.83;;;4.70;;
809;SDS011;387;48.772;9.186;2023-05-13T03:34:20;7.03;;;5.10;;
809;SDS011;387;48.772;9.186;2023-05-13T03:36:46;6.43;;;4.73;;
809;SDS011;387;48.772;9.186;2023-05-13T03:39:11;8.07;;;4.23;;
809;SDS011;387;48.772;9.186;2023-05-13T03:41:37;7.23;;;4.67;;
809;SDS011;387;48.772;9.186;2023-05-13T03:44:03;7.43;;;5.00;;
809;SDS011;387;48.772;9.186;2023-05-13T03:46:28;5.80;;;4.40;;
809;SDS011;387;48.772;9.186;2023-05-13T03:48:54;7.80;;;4.20;;
809;SDS011;387;48.772;9.186;2023-05-13T03:51:20;6.67;;;4.47;;
809;SDS011;387;48.772;9.186;2023-05-13T03:53:46;8.13;;;4.40;;
809;SDS011;387;48.772;9.186;2023-05-13T03:56:12;6.53;;;4.50;;
809;SDS011;387;48.772;9.186;2023-05-13T03:58:38;7.87;;;4.83;;
809;SDS011;387;48.772;9.186;2023-05-13T04:01:05;9.40;;;5.10;;
809;SDS011;387;48.772;9.186;2023-05-13T04:03:31;6.80;;;4.23;;
809;SDS011;387;48.772;9.186;2023-05-13T04:05:58;5.60;;;4.40;;
809;SDS011;387;48.772;9.186;2023-05-13T04:08:24;8.40;;;4.70;;
809;SDS011;387;48.772;9.186;2023-05-13T04:10:50;6.33;;;4.60;;
809;SDS011;387;48.772;9.186;2023-05-13T04:13:16;8.37;;;4.87;;
809;SDS011;387;48.772;9.186;2023-05-13T04:15:41;7.10;;;4.83;;
809;SDS011;387;48.772;9.186;2023-05-13T04:18:08;6.50;;;4.80;;
809;SDS011;387;48.772;9.186;2023-05-13T04:20:36;7.77;;;5.00;;
809;SDS011;387;48.772;9.186;2023-05-13T04:23:03;6.90;;;5.07;;
809;SDS011;387;48.772;9.186;2023-05-13T04:25:28;6.80;;;4.60;;
809;SDS011;387;48.772;9.186;2023-05-13T04:27:54;7.13;;;4.50;;
809;SDS011;387;48.772;9.186;2023-05-13T04:30:19;8.60;;;5.80;;
809;SDS011;387;48.772;9.186;2023-05-13T04:32:45;8.10;;;5.90;;
809;SDS011;387;48.772;9.186;2023-05-13T04:35:11;7.13;;;4.73;;
809;SDS011;387;48.772;9.186;2023-05-13T04:37:36;11.40;;;5.70;;
809;SDS011;387;48.772;9.186;2023-05-13T04:40:02;5.97;;;4.40;;
809;SDS011;387;48.772;9.186;2023-05-13T04:42:28;10.13;;;5.33;;
809;SDS011;387;48.772;9.186;2023-05-13T04:44:54;9.83;;;5.63;;
809;SDS011;387;48.772;9.186;2023-05-13T04:47:19;7.30;;;4.80;;
809;SDS011;387;48.772;9.186;2023-05-13T04:49:46;7.00;;;4.90;;
809;SDS011;387;48.772;9.186;2023-05-13T04:52:12;6.90;;;4.20;;
809;SDS011;387;48.772;9.186;2023-05-13T04:54:38;7.60;;;5.00;;
809;SDS011;387;48.772;9.186;2023-05-13T04:57:04;7.10;;;4.53;;
809;SDS011;387;48.772;9.186;2023-05-13T04:59:30;6.20;;;4.07;;
809;SDS011;387;48.772;9.186;2023-05-13T05:01:56;6.07;;;4.60;;
809;SDS011;387;48.772;9.186;2023-05-13T05:04:21;7.23;;;4.60;;
809;SDS011;387;48.772;9.186;2023-05-13T05:06:48;7.70;;;5.00;;
809;SDS011;387;48.772;9.186;2023-05-13T05:09:13;7.07;;;3.90;;
809;SDS011;387;48.772;9.186;2023-05-13T05:11:39;12.57;;;5.67;;
809;SDS011;387;48.772;9.186;2023-05-13T05:14:05;8.20;;;5.10;;
809;SDS011;387;48.772;9.186;2023-05-13T05:16:30;6.47;;;5.27;;
809;SDS011;387;48.772;9.186;2023-05-13T05:18:56;9.10;;;5.40;;
809;SDS011;387;48.772;9.186;2023-05-13T05:21:21;7.23;;;4.60;;
809;SDS011;387;48.772;9.186;2023-05-13T05:23:47;7.63;;;5.00;;
809;SDS011;387;48.772;9.186;2023-05-13T05:26:13;5.63;;;4.67;;
809;SDS011;387;48.772;9.186;2023-05-13T05:28:40;8.00;;;4.97;;
809;SDS011;387;48.772;9.186;2023-05-13T05:31:07;6.90;;;4.80;;
809;SDS011;387;48.772;9.186;2023-05-13T05:33:33;5.93;;;4.30;;
809;SDS011;387;48.772;9.186;2023-05-13T05:35:59;5.00;;;4.40;;
809;SDS011;387;48.772;9.186;2023-05-13T05:38:25;5.60;;;4.90;;
809;SDS011;387;48.772;9.186;2023-05-13T05:40:51;7.70;;;5.03;;
809;SDS011;387;48.772;9.186;2023-05-13T05:43:17;6.57;;;4.03;;
809;SDS011;387;48.772;9.186;2023-05-13T05:45:42;9.70;;;5.27;;
809;SDS011;387;48.772;9.186;2023-05-13T05:48:08;8.50;;;5.70;;
809;SDS011;387;48.772;9.186;2023-05-13T05:50:34;12.03;;;5.40;;
809;SDS011;387;48.772;9.186;2023-05-13T05:53:01;13.00;;;5.20;;
809;SDS011;387;48.772;9.186;2023-05-13T05:55:27;9.10;;;4.70;;
809;SDS011;387;48.772;9.186;2023-05-13T05:57:53;6.57;;;4.80;;
809;SDS011;387;48.772;9.186;2023-05-13T06:00:20;10.93;;;4.73;;
809;SDS011;387;48.772;9.186;2023-05-13T06:02:45;6.90;;;5.10;;
809;SDS011;387;48.772;9.186;2023-05-13T06:05:12;6.10;;;4.50;;
809;SDS011;387;48.772;9.186;2023-05-13T06:07:38;9.70;;;5.07;;
809;SDS011;387;48.772;9.186;2023-05-13T06:10:04;8.40;;;5.57;;
809;SDS011;387;48.772;9.186;2023-05-13T06:12:30;8.03;;;4.83;;
809;SDS011;387;48.772;9.186;2023-05-13T06:14:56;9.13;;;5.40;;
809;SDS011;387;48.772;9.186;2023-05-13T06:17:22;6.80;;;5.50;;
809;SDS011;387;48.772;9.186;2023-05-13T06:19:48;8.97;;;5.67;;
809;SDS011;387;48.772;9.186;2023-05-13T06:22:14;7.87;;;5.50;;
809;SDS011;387;48.772;9.186;2023-05-13T06:24:40;10.67;;;5.70;;
809;SDS011;387;48.772;9.186;2023-05-13T06:27:09;8.67;;;5.40;;
809;SDS011;387;48.772;9.186;2023-05-13T06:29:36;8.10;;;6.03;;
809;SDS011;387;48.772;9.186;2023-05-13T06:32:02;7.07;;;5.40;;
809;SDS011;387;48.772;9.186;2023-05-13T06:34:28;15.17;;;6.00;;
809;SDS011;387;48.772;9.186;2023-05-13T06:36:53;8.10;;;5.40;;
809;SDS011;387;48.772;9.186;2023-05-13T06:39:19;9.10;;;6.27;;
809;SDS011;387;48.772;9.186;2023-05-13T06:41:45;9.30;;;6.03;;
809;SDS011;387;48.772;9.186;2023-05-13T06:44:10;8.60;;;6.10;;
809;SDS011;387;48.772;9.186;2023-05-13T06:46:36;9.03;;;5.17;;
809;SDS011;387;48.772;9.186;2023-05-13T06:49:02;8.50;;;6.10;;
809;SDS011;387;48.772;9.186;2023-05-13T06:51:27;10.37;;;6.30;;
809;SDS011;387;48.772;9.186;2023-05-13T06:53:54;8.30;;;5.73;;
809;SDS011;387;48.772;9.186;2023-05-13T06:56:20;11.33;;;5.97;;
809;SDS011;387;48.772;9.186;2023-05-13T06:58:50;10.37;;;6.40;;
809;SDS011;387;48.772;9.186;2023-05-13T07:01:16;10.53;;;7.40;;
809;SDS011;387;48.772;9.186;2023-05-13T07:03:42;9.10;;;6.40;;
809;SDS011;387;48.772;9.186;2023-05-13T07:06:08;12.17;;;6.90;;
809;SDS011;387;48.772;9.186;2023-05-13T07:08:34;16.20;;;6.83;;
809;SDS011;387;48.772;9.186;2023-05-13T07:11:00;10.00;;;6.27;;
809;SDS011;387;48.772;9.186;2023-05-13T07:13:26;16.10;;;6.30;;
809;SDS011;387;48.772;9.186;2023-05-13T07:15:51;9.23;;;6.63;;
809;SDS011;387;48.772;9.186;2023-05-13T07:18:17;12.73;;;6.23;;
809;SDS011;387;48.772;9.186;2023-05-13T07:20:42;8.47;;;5.80;;
809;SDS011;387;48.772;9.186;2023-05-13T07:23:08;7.63;;;5.20;;
809;SDS011;387;48.772;9.186;2023-05-13T07:25:34;12.90;;;6.90;;
809;SDS011;387;48.772;9.186;2023-05-13T07:28:00;10.70;;;7.00;;
809;SDS011;387;48.772;9.186;2023-05-13T07:30:25;10.97;;;5.70;;
809;SDS011;387;48.772;9.186;2023-05-13T07:32:51;7.60;;;5.23;;
809;SDS011;387;48.772;9.186;2023-05-13T07:35:16;9.30;;;6.10;;
809;SDS011;387;48.772;9.186;2023-05-13T07:37:45;8.57;;;5.33;;
809;SDS011;387;48.772;9.186;2023-05-13T07:40:11;9.00;;;5.80;;
809;SDS011;387;48.772;9.186;2023-05-13T07:42:37;7.60;;;5.97;;
809;SDS011;387;48.772;9.186;2023-05-13T07:45:04;10.20;;;6.73;;
809;SDS011;387;48.772;9.186;2023-05-13T07:47:30;12.03;;;5.97;;
809;SDS011;387;48.772;9.186;2023-05-13T07:49:57;9.27;;;7.00;;
809;SDS011;387;48.772;9.186;2023-05-13T07:52:23;13.37;;;6.67;;
809;SDS011;387;48.772;9.186;2023-05-13T07:54:48;7.80;;;5.60;;
809;SDS011;387;48.772;9.186;2023-05-13T07:57:14;10.80;;;5.97;;
809;SDS011;387;48.772;9.186;2023-05-13T07:59:40;12.03;;;6.47;;
809;SDS011;387;48.772;9.186;2023-05-13T08:02:06;11.30;;;6.70;;
809;SDS011;387;48.772;9.186;2023-05-13T08:04:32;10.63;;;6.53;;
809;SDS011;387;48.772;9.186;2023-05-13T08:06:59;15.00;;;6.40;;
809;SDS011;387;48.772;9.186;2023-05-13T08:09:25;7.97;;;6.23;;
809;SDS011;387;48.772;9.186;2023-05-13T08:11:51;8.57;;;5.60;;
809;SDS011;387;48.772;9.186;2023-05-13T08:14:16;6.93;;;5.60;;
809;SDS011;387;48.772;9.186;2023-05-13T08:16:42;10.27;;;6.50;;
809;SDS011;387;48.772;9.186;2023-05-13T08:19:08;10.40;;;5.60;;
809;SDS011;387;48.772;9.186;2023-05-13T08:21:33;8.10;;;5.97;;
809;SDS011;387;48.772;9.186;2023-05-13T08:23:59;8.93;;;6.30;;
809;SDS011;387;48.772;9.186;2023-05-13T08:26:25;8.53;;;5.47;;
809;SDS011;387;48.772;9.186;2023-05-13T08:28:51;10.47;;;6.60;;
809;SDS011;387;48.772;9.186;2023-05-13T08:31:16;10.60;;;6.00;;
809;SDS011;387;48.772;9.186;2023-05-13T08:33:42;12.23;;;6.93;;
809;SDS011;387;48.772;9.186;2023-05-13T08:36:10;10.67;;;6.57;;
809;SDS011;387;48.772;9.186;2023-05-13T08:38:36;7.80;;;6.20;;
809;SDS011;387;48.772;9.186;2023-05-13T08:41:04;9.33;;;6.40;;
809;SDS011;387;48.772;9.186;2023-05-13T08:43:31;8.40;;;6.17;;
809;SDS011;387;48.772;9.186;2023-05-13T08:45:57;10.07;;;6.27;;
809;SDS011;387;48.772;9.186;2023-05-13T08:48:28;9.77;;;6.20;;
809;SDS011;387;48.772;9.186;2023-05-13T08:50:55;12.33;;;6.70;;
809;SDS011;387;48.772;9.186;2023-05-13T08:53:21;10.60;;;6.83;;
809;SDS011;387;48.772;9.186;2023-05-13T08:55:50;10.20;;;6.50;;
809;SDS011;387;48.772;9.186;2023-05-13T08:58:16;10.97;;;6.80;;
809;SDS011;387;48.772;9.186;2023-05-13T09:00:42;11.07;;;6.40;;
809;SDS011;387;48.772;9.186;2023-05-13T09:03:07;9.47;;;7.00;;
809;SDS011;387;48.772;9.186;2023-05-13T09:05:34;10.93;;;6.80;;
809;SDS011;387;48.772;9.186;2023-05-13T09:08:01;10.23;;;6.50;;
809;SDS011;387;48.772;9.186;2023-05-13T09:10:33;8.27;;;6.07;;
809;SDS011;387;48.772;9.186;2023-05-13T09:12:59;13.30;;;6.87;;
809;SDS011;387;48.772;9.186;2023-05-13T09:15:26;11.33;;;6.50;;
809;SDS011;387;48.772;9.186;2023-05-13T09:17:53;8.83;;;5.80;;
809;SDS011;387;48.772;9.186;2023-05-13T09:20:26;6.97;;;5.70;;
809;SDS011;387;48.772;9.186;2023-05-13T09:22:54;9.63;;;6.53;;
809;SDS011;387;48.772;9.186;2023-05-13T09:25:30;9.60;;;5.60;;
809;SDS011;387;48.772;9.186;2023-05-13T09:28:00;7.30;;;5.47;;
809;SDS011;387;48.772;9.186;2023-05-13T09:30:27;7.03;;;5.27;;
809;SDS011;387;48.772;9.186;2023-05-13T09:35:43;10.53;;;6.00;;
809;SDS011;387;48.772;9.186;2023-05-13T09:38:14;8.77;;;5.47;;
809;SDS011;387;48.772;9.186;2023-05-13T09:40:47;8.40;;;4.57;;
809;SDS011;387;48.772;9.186;2023-05-13T09:43:18;8.13;;;5.23;;
809;SDS011;387;48.772;9.186;2023-05-13T09:45:45;10.17;;;5.17;;
809;SDS011;387;48.772;9.186;2023-05-13T09:48:10;10.00;;;5.73;;
809;SDS011;387;48.772;9.186;2023-05-13T09:50:48;9.80;;;5.83;;
809;SDS011;387;48.772;9.186;2023-05-13T09:53:15;7.53;;;4.80;;
809;SDS011;387;48.772;9.186;2023-05-13T09:55:47;6.50;;;4.77;;
809;SDS011;387;48.772;9.186;2023-05-13T09:58:14;7.73;;;5.90;;
809;SDS011;387;48.772;9.186;2023-05-13T10:00:41;7.10;;;4.93;;
809;SDS011;387;48.772;9.186;2023-05-13T10:03:07;7.70;;;5.30;;
809;SDS011;387;48.772;9.186;2023-05-13T10:05:34;7.67;;;5.50;;
809;SDS011;387;48.772;9.186;2023-05-13T10:08:00;7.70;;;5.70;;
809;SDS011;387;48.772;9.186;2023-05-13T10:10:27;7.70;;;5.20;;
809;SDS011;387;48.772;9.186;2023-05-13T10:12:55;7.63;;;5.03;;
809;SDS011;387;48.772;9.186;2023-05-13T10:15:36;7.93;;;5.00;;
809;SDS011;387;48.772;9.186;2023-05-13T10:18:11;7.03;;;5.20;;
809;SDS011;387;48.772;9.186;2023-05-13T10:20:39;8.87;;;5.40;;
809;SDS011;387;48.772;9.186;2023-05-13T10:23:06;8.10;;;4.77;;
809;SDS011;387;48.772;9.186;2023-05-13T10:25:32;6.23;;;4.80;;
809;SDS011;387;48.772;9.186;2023-05-13T10:27:57;7.20;;;4.97;;
809;SDS011;387;48.772;9.186;2023-05-13T10:30:27;5.73;;;3.70;;
809;SDS011;387;48.772;9.186;2023-05-13T10:32:55;4.47;;;3.83;;
809;SDS011;387;48.772;9.186;2023-05-13T10:35:21;5.67;;;4.20;;
809;SDS011;387;48.772;9.186;2023-05-13T10:43:27;7.00;;;3.90;;
809;SDS011;387;48.772;9.186;2023-05-13T10:46:02;7.00;;;5.00;;
809;SDS011;387;48.772;9.186;2023-05-13T10:48:46;11.90;;;5.70;;
809;SDS011;387;48.772;9.186;2023-05-13T10:51:13;12.33;;;6.30;;
809;SDS011;387;48.772;9.186;2023-05-13T10:56:11;10.67;;;6.30;;
809;SDS011;387;48.772;9.186;2023-05-13T10:58:37;9.17;;;6.60;;
809;SDS011;387;48.772;9.186;2023-05-13T11:01:13;11.80;;;6.80;;
809;SDS011;387;48.772;9.186;2023-05-13T11:03:53;11.53;;;6.27;;
809;SDS011;387;48.772;9.186;2023-05-13T11:06:20;8.70;;;5.90;;
809;SDS011;387;48.772;9.186;2023-05-13T11:09:07;11.47;;;5.70;;
809;SDS011;387;48.772;9.186;2023-05-13T11:11:53;11.47;;;7.17;;
809;SDS011;387;48.772;9.186;2023-05-13T11:14:21;9.47;;;6.67;;
809;SDS011;387;48.772;9.186;2023-05-13T11:19:26;8.57;;;6.03;;
809;SDS011;387;48.772;9.186;2023-05-13T11:22:14;8.67;;;5.77;;
809;SDS011;387;48.772;9.186;2023-05-13T11:24:45;9.70;;;6.80;;
809;SDS011;387;48.772;9.186;2023-05-13T11:27:26;10.37;;;6.43;;
809;SDS011;387;48.772;9.186;2023-05-13T11:29:53;8.03;;;5.87;;
809;SDS011;387;48.772;9.186;2023-05-13T11:35:19;8.37;;;6.10;;
809;SDS011;387;48.772;9.186;2023-05-13T11:37:45;9.00;;;6.53;;
809;SDS011;387;48.772;9.186;2023-05-13T11:40:20;8.87;;;6.00;;
809;SDS011;387;48.772;9.186;2023-05-13T11:42:47;10.77;;;6.30;;
809;SDS011;387;48.772;9.186;2023-05-13T11:45:13;7.83;;;5.60;;
809;SDS011;387;48.772;9.186;2023-05-13T11:47:39;8.57;;;6.23;;
809;SDS011;387;48.772;9.186;2023-05-13T11:50:27;8.90;;;5.83;;
809;SDS011;387;48.772;9.186;2023-05-13T11:52:55;9.53;;;5.90;;
809;SDS011;387;48.772;9.186;2023-05-13T11:55:28;9.87;;;6.97;;
809;SDS011;387;48.772;9.186;2023-05-13T11:57:55;7.80;;;5.30;;
809;SDS011;387;48.772;9.186;2023-05-13T12:00:25;9.50;;;6.40;;
809;SDS011;387;48.772;9.186;2023-05-13T12:02:52;10.60;;;6.40;;
809;SDS011;387;48.772;9.186;2023-05-13T12:05:18;7.23;;;5.00;;
809;SDS011;387;48.772;9.186;2023-05-13T12:07:44;7.47;;;5.27;;
809;SDS011;387;48.772;9.186;2023-05-13T12:10:10;8.50;;;5.33;;
809;SDS011;387;48.772;9.186;2023-05-13T12:12:37;9.30;;;5.97;;
809;SDS011;387;48.772;9.186;2023-05-13T12:15:05;7.17;;;5.60;;
809;SDS011;387;48.772;9.186;2023-05-13T12:17:34;9.73;;;5.30;;
809;SDS011;387;48.772;9.186;2023-05-13T12:20:13;7.03;;;4.77;;
809;SDS011;387;48.772;9.186;2023-05-13T12:28:22;6.10;;;4.40;;
809;SDS011;387;48.772;9.186;2023-05-13T12:30:53;7.53;;;5.00;;
809;SDS011;387;48.772;9.186;2023-05-13T12:33:20;6.23;;;4.40;;
809;SDS011;387;48.772;9.186;2023-05-13T12:39:03;5.87;;;4.87;;
809;SDS011;387;48.772;9.186;2023-05-13T12:41:34;7.93;;;5.70;;
809;SDS011;387;48.772;9.186;2023-05-13T12:44:14;8.30;;;5.37;;
809;SDS011;387;48.772;9.186;2023-05-13T12:46:53;9.77;;;5.73;;
809;SDS011;387;48.772;9.186;2023-05-13T12:49:19;7.77;;;5.10;;
809;SDS011;387;48.772;9.186;2023-05-13T12:51:46;10.33;;;5.20;;
809;SDS011;387;48.772;9.186;2023-05-13T12:54:11;8.87;;;5.20;;
809;SDS011;387;48.772;9.186;2023-05-13T12:56:37;6.53;;;5.00;;
809;SDS011;387;48.772;9.186;2023-05-13T12:59:06;7.40;;;4.87;;
809;SDS011;387;48.772;9.186;2023-05-13T13:01:32;6.97;;;5.50;;
809;SDS011;387;48.772;9.186;2023-05-13T13:03:58;7.37;;;5.10;;
809;SDS011;387;48.772;9.186;2023-05-13T13:06:24;7.33;;;5.17;;
809;SDS011;387;48.772;9.186;2023-05-13T13:08:50;8.33;;;4.73;;
809;SDS011;387;48.772;9.186;2023-05-13T13:11:18;9.20;;;5.30;;
809;SDS011;387;48.772;9.186;2023-05-13T13:13:44;6.70;;;5.23;;
809;SDS011;387;48.772;9.186;2023-05-13T13:16:10;6.70;;;4.63;;
809;SDS011;387;48.772;9.186;2023-05-13T13:18:37;7.97;;;5.70;;
809;SDS011;387;48.772;9.186;2023-05-13T13:21:03;7.20;;;4.67;;
809;SDS011;387;48.772;9.186;2023-05-13T13:23:29;5.87;;;4.70;;
809;SDS011;387;48.772;9.186;2023-05-13T13:25:55;10.17;;;5.33;;
809;SDS011;387;48.772;9.186;2023-05-13T13:28:23;6.60;;;5.23;;
809;SDS011;387;48.772;9.186;2023-05-13T13:30:51;7.00;;;4.80;;
809;SDS011;387;48.772;9.186;2023-05-13T13:33:17;8.80;;;5.20;;
809;SDS011;387;48.772;9.186;2023-05-13T13:35:44;5.73;;;4.70;;
809;SDS011;387;48.772;9.186;2023-05-13T13:38:11;8.13;;;5.43;;
809;SDS011;387;48.772;9.186;2023-05-13T13:40:37;6.97;;;5.47;;
809;SDS011;387;48.772;9.186;2023-05-13T13:43:03;7.13;;;5.63;;
809;SDS011;387;48.772;9.186;2023-05-13T13:45:30;9.90;;;5.47;;
809;SDS011;387;48.772;9.186;2023-05-13T13:47:56;6.57;;;5.17;;
809;SDS011;387;48.772;9.186;2023-05-13T13:50:21;8.33;;;4.83;;
809;SDS011;387;48.772;9.186;2023-05-13T13:52:47;6.97;;;4.57;;
809;SDS011;387;48.772;9.186;2023-05-13T13:55:13;8.20;;;4.97;;
809;SDS011;387;48.772;9.186;2023-05-13T13:57:40;11.07;;;4.60;;
809;SDS011;387;48.772;9.186;2023-05-13T14:00:05;6.60;;;4.60;;
809;SDS011;387;48.772;9.186;2023-05-13T14:02:32;7.07;;;4.73;;
809;SDS011;387;48.772;9.186;2023-05-13T14:04:57;8.60;;;4.50;;
809;SDS011;387;48.772;9.186;2023-05-13T14:07:23;10.67;;;5.30;;
809;SDS011;387;48.772;9.186;2023-05-13T14:09:49;7.50;;;5.20;;
809;SDS011;387;48.772;9.186;2023-05-13T14:12:16;7.57;;;5.27;;
809;SDS011;387;48.772;9.186;2023-05-13T14:14:41;6.53;;;5.00;;
809;SDS011;387;48.772;9.186;2023-05-13T14:17:07;6.00;;;4.90;;
809;SDS011;387;48.772;9.186;2023-05-13T14:19:33;9.00;;;5.30;;
809;SDS011;387;48.772;9.186;2023-05-13T14:21:58;7.10;;;4.50;;
809;SDS011;387;48.772;9.186;2023-05-13T14:24:24;5.13;;;4.10;;
809;SDS011;387;48.772;9.186;2023-05-13T14:26:51;5.70;;;4.60;;
809;SDS011;387;48.772;9.186;2023-05-13T14:29:17;6.63;;;4.83;;
809;SDS011;387;48.772;9.186;2023-05-13T14:31:42;9.00;;;5.40;;
809;SDS011;387;48.772;9.186;2023-05-13T14:34:08;6.97;;;5.03;;
809;SDS011;387;48.772;9.186;2023-05-13T14:36:34;9.87;;;6.33;;
809;SDS011;387;48.772;9.186;2023-05-13T14:39:00;7.30;;;5.90;;
809;SDS011;387;48.772;9.186;2023-05-13T14:41:25;8.00;;;5.83;;
809;SDS011;387;48.772;9.186;2023-05-13T14:43:53;8.63;;;6.03;;
809;SDS011;387;48.772;9.186;2023-05-13T14:46:18;6.83;;;5.30;;
809;SDS011;387;48.772;9.186;2023-05-13T14:48:44;6.20;;;5.17;;
809;SDS011;387;48.772;9.186;2023-05-13T14:51:10;8.17;;;5.57;;
809;SDS011;387;48.772;9.186;2023-05-13T14:53:36;8.10;;;5.57;;
809;SDS011;387;48.772;9.186;2023-05-13T14:56:03;7.00;;;5.40;;
809;SDS011;387;48.772;9.186;2023-05-13T14:58:29;8.73;;;6.20;;
809;SDS011;387;48.772;9.186;2023-05-13T15:00:55;7.87;;;5.17;;
809;SDS011;387;48.772;9.186;2023-05-13T15:03:21;10.23;;;5.60;;
809;SDS011;387;48.772;9.186;2023-05-13T15:05:46;7.77;;;5.57;;
809;SDS011;387;48.772;9.186;2023-05-13T15:08:12;7.60;;;5.10;;
809;SDS011;387;48.772;9.186;2023-05-13T15:10:38;6.63;;;4.70;;
809;SDS011;387;48.772;9.186;2023-05-13T15:13:03;7.70;;;5.40;;
809;SDS011;387;48.772;9.186;2023-05-13T15:15:29;8.20;;;6.00;;
809;SDS011;387;48.772;9.186;2023-05-13T15:17:56;8.00;;;5.10;;
809;SDS011;387;48.772;9.186;2023-05-13T15:20:21;7.43;;;5.40;;
809;SDS011;387;48.772;9.186;2023-05-13T15:22:47;7.50;;;5.47;;
809;SDS011;387;48.772;9.186;2023-05-13T15:25:12;8.47;;;6.10;;
809;SDS011;387;48.772;9.186;2023-05-13T15:27:38;8.20;;;5.57;;
809;SDS011;387;48.772;9.186;2023-05-13T15:30:04;8.57;;;5.13;;
809;SDS011;387;48.772;9.186;2023-05-13T15:32:30;7.77;;;5.23;;
809;SDS011;387;48.772;9.186;2023-05-13T15:34:56;6.17;;;4.80;;
809;SDS011;387;48.772;9.186;2023-05-13T15:37:21;10.10;;;6.20;;
809;SDS011;387;48.772;9.186;2023-05-13T15:39:47;7.07;;;5.30;;
809;SDS011;387;48.772;9.186;2023-05-13T15:42:12;8.70;;;5.80;;
809;SDS011;387;48.772;9.186;2023-05-13T15:44:38;9.30;;;6.00;;
809;SDS011;387;48.772;9.186;2023-05-13T15:47:04;7.77;;;5.20;;
809;SDS011;387;48.772;9.186;2023-05-13T15:49:30;7.27;;;5.90;;
809;SDS011;387;48.772;9.186;2023-05-13T15:51:57;9.77;;;5.63;;
809;SDS011;387;48.772;9.186;2023-05-13T15:54:23;9.80;;;5.47;;
809;SDS011;387;48.772;9.186;2023-05-13T15:56:48;10.33;;;5.93;;
809;SDS011;387;48.772;9.186;2023-05-13T15:59:14;7.03;;;5.53;;
809;SDS011;387;48.772;9.186;2023-05-13T16:01:40;10.67;;;5.60;;
809;SDS011;387;48.772;9.186;2023-05-13T16:04:06;6.40;;;5.47;;
809;SDS011;387;48.772;9.186;2023-05-13T16:06:32;7.30;;;5.37;;
809;SDS011;387;48.772;9.186;2023-05-13T16:08:58;8.80;;;6.40;;
809;SDS011;387;48.772;9.186;2023-05-13T16:11:28;7.87;;;5.60;;
809;SDS011;387;48.772;9.186;2023-05-13T16:13:53;7.30;;;5.00;;